createdAt,value
2023-05-12T00:01:42.241Z,3.50
2023-05-12T00:04:09.748Z,3.42
2023-05-12T00:06:37.190Z,3.42
2023-05-12T00:09:04.613Z,3.63
2023-05-12T00:11:31.963Z,3.78
2023-05-12T00:13:59.468Z,3.13
2023-05-12T00:16:26.984Z,3.20
2023-05-12T00:18:54.406Z,3.35
2023-05-12T00:21:21.845Z,3.45
2023-05-12T00:23:49.172Z,3.35
2023-05-12T00:26:17.723Z,3.45
2023-05-12T00:28:45.454Z,3.97
2023-05-12T00:31:12.839Z,3.67
2023-05-12T00:33:40.283Z,3.63
2023-05-12T00:36:07.945Z,4.32
2023-05-12T00:38:37.493Z,4.25
2023-05-12T00:41:04.926Z,3.92
2023-05-12T00:43:32.270Z,4.07
2023-05-12T00:46:00.021Z,3.90
2023-05-12T00:48:27.892Z,3.72
2023-05-12T00:50:55.610Z,3.97
2023-05-12T00:53:23.140Z,3.78
2023-05-12T00:55:50.899Z,3.13
2023-05-12T00:58:18.269Z,3.40
2023-05-12T01:00:45.594Z,3.20
2023-05-12T01:03:13.241Z,3.65
2023-05-12T01:05:43.696Z,3.25
2023-05-12T01:08:12.304Z,4.93
2023-05-12T01:10:44.437Z,3.72
2023-05-12T01:13:11.839Z,3.63
2023-05-12T01:15:41.236Z,4.28
2023-05-12T01:18:11.001Z,3.65
2023-05-12T01:20:38.431Z,3.88
2023-05-12T01:23:06.878Z,3.80
2023-05-12T01:25:34.823Z,4.20
2023-05-12T01:28:03.482Z,4.03
2023-05-12T01:30:31.097Z,4.45
2023-05-12T01:32:58.630Z,4.03
2023-05-12T01:35:26.095Z,3.35
2023-05-12T01:37:53.460Z,3.38
2023-05-12T01:40:21.465Z,4.30
2023-05-12T01:42:48.984Z,3.70
2023-05-12T01:45:16.362Z,3.30
2023-05-12T01:47:43.682Z,3.40
2023-05-12T01:50:11.322Z,3.20
2023-05-12T01:52:38.677Z,3.13
2023-05-12T01:55:09.522Z,3.17
2023-05-12T01:57:36.902Z,3.63
2023-05-12T02:00:04.440Z,3.42
2023-05-12T02:02:34.099Z,3.03
2023-05-12T02:05:01.516Z,3.20
2023-05-12T02:07:29.104Z,3.50
2023-05-12T02:09:56.435Z,3.63
2023-05-12T02:12:23.792Z,3.80
2023-05-12T02:14:51.096Z,4.03
2023-05-12T02:17:18.488Z,4.03
2023-05-12T02:19:46.308Z,3.80
2023-05-12T02:22:13.656Z,3.13
2023-05-12T02:24:41.021Z,3.88
2023-05-12T02:27:08.352Z,3.60
2023-05-12T02:29:36.443Z,4.22
2023-05-12T02:32:03.858Z,3.33
2023-05-12T02:34:31.211Z,3.65
2023-05-12T02:36:58.562Z,3.72
2023-05-12T02:39:25.858Z,3.58
2023-05-12T02:41:53.190Z,3.50
2023-05-12T02:44:22.553Z,3.38
2023-05-12T02:46:49.968Z,3.67
2023-05-12T02:49:17.372Z,3.55
2023-05-12T02:51:44.800Z,3.33
2023-05-12T02:54:12.253Z,3.25
2023-05-12T02:56:39.678Z,3.42
2023-05-12T02:59:07.075Z,3.30
2023-05-12T03:01:34.520Z,3.42
2023-05-12T03:04:01.928Z,3.50
2023-05-12T03:06:30.351Z,3.50
2023-05-12T03:08:57.748Z,2.58
2023-05-12T03:11:25.069Z,2.97
2023-05-12T03:13:52.407Z,2.90
2023-05-12T03:16:20.109Z,3.17
2023-05-12T03:18:47.621Z,3.55
2023-05-12T03:21:15.059Z,4.13
2023-05-12T03:23:42.360Z,3.60
2023-05-12T03:26:09.786Z,3.97
2023-05-12T03:28:37.092Z,4.05
2023-05-12T03:31:04.515Z,3.45
2023-05-12T03:33:31.834Z,3.67
2023-05-12T03:35:59.356Z,3.30
2023-05-12T03:38:26.757Z,2.97
2023-05-12T03:41:03.772Z,3.70
2023-05-12T03:43:31.154Z,3.10
2023-05-12T03:45:58.582Z,3.60
2023-05-12T03:48:26.347Z,3.00
2023-05-12T03:50:53.711Z,3.05
2023-05-12T03:53:21.053Z,3.20
2023-05-12T03:55:48.579Z,3.22
2023-05-12T03:58:16.013Z,3.20
2023-05-12T04:00:44.268Z,2.88
2023-05-12T04:03:11.799Z,3.25
2023-05-12T04:05:39.777Z,3.20
2023-05-12T04:08:07.435Z,2.90
2023-05-12T04:10:38.909Z,3.47
2023-05-12T04:13:06.336Z,2.88
2023-05-12T04:15:33.641Z,3.42
2023-05-12T04:18:01.552Z,2.97
2023-05-12T04:20:28.929Z,3.55
2023-05-12T04:22:57.020Z,3.50
2023-05-12T04:25:24.494Z,3.42
2023-05-12T04:27:51.903Z,3.22
2023-05-12T04:30:19.564Z,3.10
2023-05-12T04:32:47.408Z,3.25
2023-05-12T04:35:14.774Z,3.55
2023-05-12T04:37:42.297Z,3.22
2023-05-12T04:40:09.962Z,3.60
2023-05-12T04:42:37.304Z,3.97
2023-05-12T04:45:04.797Z,3.88
2023-05-12T04:47:32.148Z,3.92
2023-05-12T04:49:59.684Z,3.80
2023-05-12T04:52:27.158Z,3.50
2023-05-12T04:54:54.531Z,3.15
2023-05-12T04:57:21.838Z,3.10
2023-05-12T04:59:49.306Z,3.10
2023-05-12T05:02:16.951Z,3.78
2023-05-12T05:04:44.316Z,3.10
2023-05-12T05:07:11.673Z,3.38
2023-05-12T05:09:39.001Z,3.22
2023-05-12T05:12:07.321Z,3.55
2023-05-12T05:14:34.802Z,3.50
2023-05-12T05:17:02.508Z,3.70
2023-05-12T05:22:02.532Z,3.28
2023-05-12T05:24:29.987Z,3.15
2023-05-12T05:26:57.318Z,4.05
2023-05-12T05:29:24.742Z,3.45
2023-05-12T05:31:52.723Z,3.72
2023-05-12T05:34:20.264Z,3.30
2023-05-12T05:36:47.634Z,3.63
2023-05-12T05:39:14.955Z,3.63
2023-05-12T05:41:42.267Z,4.47
2023-05-12T05:44:09.649Z,3.63
2023-05-12T05:46:36.998Z,3.65
2023-05-12T05:49:04.393Z,3.38
2023-05-12T05:51:31.799Z,3.42
2023-05-12T05:53:59.233Z,3.17
2023-05-12T05:56:27.277Z,3.47
2023-05-12T05:58:54.663Z,3.70
2023-05-12T06:01:22.008Z,4.32
2023-05-12T06:03:49.533Z,4.70
2023-05-12T06:06:16.983Z,5.20
2023-05-12T06:08:44.289Z,4.15
2023-05-12T06:11:12.224Z,5.22
2023-05-12T06:13:39.598Z,5.10
2023-05-12T06:16:07.000Z,6.00
2023-05-12T06:18:37.978Z,5.70
2023-05-12T06:21:05.982Z,4.63
2023-05-12T06:23:33.526Z,4.43
2023-05-12T06:26:00.862Z,4.55
2023-05-12T06:28:28.264Z,4.50
2023-05-12T06:30:56.290Z,5.22
2023-05-12T06:33:23.607Z,5.57
2023-05-12T06:35:50.999Z,4.00
2023-05-12T06:38:18.331Z,3.92
2023-05-12T06:40:45.671Z,4.18
2023-05-12T06:43:13.302Z,4.35
2023-05-12T06:45:40.599Z,4.85
2023-05-12T06:48:09.556Z,5.25
2023-05-12T06:50:37.171Z,3.95
2023-05-12T06:53:06.469Z,4.25
2023-05-12T06:55:33.794Z,4.85
2023-05-12T06:58:01.139Z,3.90
2023-05-12T07:00:28.555Z,4.63
2023-05-12T07:02:55.949Z,5.00
2023-05-12T07:05:23.744Z,4.63
2023-05-12T07:07:51.240Z,4.57
2023-05-12T07:10:18.680Z,4.63
2023-05-12T07:12:46.296Z,6.05
2023-05-12T07:15:13.655Z,4.78
2023-05-12T07:17:41.039Z,4.28
2023-05-12T07:20:09.053Z,4.78
2023-05-12T07:22:38.771Z,4.75
2023-05-12T07:25:07.855Z,4.55
2023-05-12T07:27:35.475Z,4.60
2023-05-12T07:30:02.827Z,4.28
2023-05-12T07:32:30.372Z,3.60
2023-05-12T07:34:57.787Z,4.50
2023-05-12T07:37:25.150Z,4.75
2023-05-12T07:39:52.490Z,5.13
2023-05-12T07:42:19.933Z,4.22
2023-05-12T07:44:47.319Z,5.43
2023-05-12T07:47:14.716Z,4.15
2023-05-12T07:49:42.143Z,3.90
2023-05-12T07:52:09.710Z,4.13
2023-05-12T07:54:37.381Z,4.47
2023-05-12T07:57:04.825Z,4.28
2023-05-12T07:59:32.225Z,3.90
2023-05-12T08:01:59.682Z,3.97
2023-05-12T08:04:27.089Z,3.65
2023-05-12T08:06:55.039Z,3.88
2023-05-12T08:09:22.361Z,3.35
2023-05-12T08:11:51.608Z,3.63
2023-05-12T08:14:19.322Z,3.67
2023-05-12T08:16:46.875Z,3.63
2023-05-12T08:19:14.688Z,3.83
2023-05-12T08:21:42.127Z,3.67
2023-05-12T08:24:09.612Z,4.43
2023-05-12T08:26:36.943Z,3.35
2023-05-12T08:29:06.141Z,3.30
2023-05-12T08:31:33.512Z,3.33
2023-05-12T08:34:09.836Z,3.47
2023-05-12T08:36:38.673Z,3.60
2023-05-12T08:39:06.153Z,3.13
2023-05-12T08:41:53.804Z,3.60
2023-05-12T08:44:21.860Z,3.30
2023-05-12T08:46:49.500Z,3.63
2023-05-12T08:49:18.070Z,3.10
2023-05-12T08:51:56.495Z,3.35
2023-05-12T08:54:24.919Z,3.47
2023-05-12T08:59:24.149Z,3.58
2023-05-12T09:01:51.961Z,4.00
2023-05-12T09:04:19.324Z,3.58
2023-05-12T09:06:47.206Z,3.72
2023-05-12T09:09:15.832Z,3.67
2023-05-12T09:11:43.749Z,3.42
2023-05-12T09:14:19.192Z,3.15
2023-05-12T09:16:48.953Z,3.47
2023-05-12T09:19:20.744Z,3.20
2023-05-12T09:21:49.014Z,3.00
2023-05-12T09:24:16.438Z,2.78
2023-05-12T09:26:47.745Z,2.58
2023-05-12T09:29:24.006Z,2.83
2023-05-12T09:31:57.842Z,2.83
2023-05-12T09:34:37.273Z,3.05
2023-05-12T09:37:06.770Z,3.30
2023-05-12T09:39:34.571Z,2.70
2023-05-12T09:42:02.138Z,2.85
2023-05-12T09:44:29.591Z,3.13
2023-05-12T09:46:56.976Z,3.08
2023-05-12T09:49:26.576Z,2.85
2023-05-12T09:51:54.445Z,2.97
2023-05-12T09:54:28.584Z,3.55
2023-05-12T09:56:58.615Z,3.30
2023-05-12T09:59:27.217Z,3.22
2023-05-12T10:01:55.058Z,2.83
2023-05-12T10:04:22.820Z,3.00
2023-05-12T10:06:50.491Z,2.95
2023-05-12T10:09:21.553Z,2.83
2023-05-12T10:11:51.947Z,2.55
2023-05-12T10:14:21.196Z,3.28
2023-05-12T10:16:48.848Z,4.05
2023-05-12T10:19:16.531Z,3.20
2023-05-12T10:21:47.521Z,3.00
2023-05-12T10:24:17.032Z,3.00
2023-05-12T10:26:44.978Z,3.25
2023-05-12T10:29:13.254Z,3.35
2023-05-12T10:31:40.936Z,2.78
2023-05-12T10:34:08.386Z,3.60
2023-05-12T10:36:52.422Z,4.10
2023-05-12T10:39:20.119Z,3.90
2023-05-12T10:41:47.518Z,3.33
2023-05-12T10:44:14.907Z,3.83
2023-05-12T10:46:42.936Z,4.35
2023-05-12T10:49:13.185Z,3.30
2023-05-12T10:51:43.553Z,3.80
2023-05-12T10:54:13.034Z,3.60
2023-05-12T10:56:40.635Z,3.40
2023-05-12T10:59:10.262Z,4.20
2023-05-12T11:01:38.206Z,3.08
2023-05-12T11:04:13.142Z,3.75
2023-05-12T11:06:41.285Z,3.38
2023-05-12T11:09:09.340Z,3.03
2023-05-12T11:11:36.807Z,3.40
2023-05-12T11:14:04.258Z,3.10
2023-05-12T11:16:31.627Z,3.50
2023-05-12T11:19:05.553Z,3.85
2023-05-12T11:21:33.265Z,3.63
2023-05-12T11:24:01.545Z,3.72
2023-05-12T11:26:32.008Z,3.75
2023-05-12T11:28:59.583Z,3.53
2023-05-12T11:31:27.562Z,3.95
2023-05-12T11:34:11.998Z,3.85
2023-05-12T11:36:42.532Z,3.88
2023-05-12T11:39:42.621Z,3.80
2023-05-12T11:42:13.490Z,3.40
2023-05-12T11:44:48.311Z,4.10
2023-05-12T11:47:16.708Z,3.25
2023-05-12T11:52:28.380Z,3.40
2023-05-12T11:55:01.863Z,3.53
2023-05-12T11:57:32.725Z,3.42
2023-05-12T12:00:01.300Z,3.47
2023-05-12T12:02:29.191Z,2.78
2023-05-12T12:04:56.723Z,2.90
2023-05-12T12:07:34.746Z,3.00
2023-05-12T12:10:20.760Z,3.22
2023-05-12T12:12:48.098Z,3.05
2023-05-12T12:15:16.872Z,3.03
2023-05-12T12:17:44.287Z,3.38
2023-05-12T12:20:11.966Z,3.15
2023-05-12T12:22:39.349Z,2.95
2023-05-12T12:25:06.957Z,3.33
2023-05-12T12:27:34.317Z,3.00
2023-05-12T12:30:01.710Z,3.03
2023-05-12T12:32:29.425Z,2.97
2023-05-12T12:35:00.381Z,3.20
2023-05-12T12:37:27.805Z,3.28
2023-05-12T12:39:55.525Z,2.80
2023-05-12T12:42:22.972Z,3.03
2023-05-12T12:44:51.614Z,2.92
2023-05-12T12:47:19.229Z,2.97
2023-05-12T12:49:46.650Z,3.17
2023-05-12T12:52:14.121Z,2.60
2023-05-12T12:54:42.058Z,3.15
2023-05-12T12:57:09.451Z,3.17
2023-05-12T12:59:36.825Z,3.33
2023-05-12T13:02:04.389Z,2.70
2023-05-12T13:04:31.749Z,2.85
2023-05-12T13:06:59.166Z,3.25
2023-05-12T13:09:26.617Z,3.38
2023-05-12T13:11:54.009Z,3.00
2023-05-12T13:14:21.757Z,3.53
2023-05-12T13:16:49.329Z,2.80
2023-05-12T13:19:16.739Z,2.70
2023-05-12T13:21:44.135Z,2.90
2023-05-12T13:24:11.498Z,2.97
2023-05-12T13:26:38.863Z,2.70
2023-05-12T13:29:07.178Z,2.95
2023-05-12T13:31:34.631Z,2.65
2023-05-12T13:34:02.555Z,3.30
2023-05-12T13:36:32.326Z,2.97
2023-05-12T13:38:59.642Z,2.42
2023-05-12T13:41:26.966Z,2.97
2023-05-12T13:43:54.263Z,3.00
2023-05-12T13:46:21.726Z,2.70
2023-05-12T13:48:49.162Z,2.92
2023-05-12T13:51:16.564Z,3.05
2023-05-12T13:53:43.943Z,2.92
2023-05-12T13:56:11.493Z,3.42
2023-05-12T13:58:38.844Z,2.60
2023-05-12T14:01:08.685Z,3.10
2023-05-12T14:03:37.209Z,2.70
2023-05-12T14:06:05.108Z,3.20
2023-05-12T14:08:32.431Z,3.38
2023-05-12T14:11:00.334Z,3.00
2023-05-12T14:13:28.127Z,2.60
2023-05-12T14:15:55.842Z,2.85
2023-05-12T14:18:23.563Z,2.92
2023-05-12T14:20:51.010Z,6.00
2023-05-12T14:23:18.365Z,2.88
2023-05-12T14:25:45.696Z,2.75
2023-05-12T14:28:13.101Z,3.00
2023-05-12T14:30:40.849Z,3.17
2023-05-12T14:33:08.353Z,3.00
2023-05-12T14:35:35.796Z,3.30
2023-05-12T14:38:03.158Z,2.80
2023-05-12T14:40:30.522Z,2.63
2023-05-12T14:42:57.856Z,2.78
2023-05-12T14:45:26.822Z,3.40
2023-05-12T14:47:54.899Z,2.90
2023-05-12T14:50:22.768Z,3.50
2023-05-12T15:00:28.388Z,3.45
2023-05-12T15:02:55.802Z,3.67
2023-05-12T15:05:32.385Z,2.83
2023-05-12T15:08:10.680Z,2.72
2023-05-12T15:10:38.063Z,3.03
2023-05-12T15:13:05.508Z,2.60
2023-05-12T15:15:33.565Z,3.00
2023-05-12T15:18:01.001Z,2.50
2023-05-12T15:20:28.446Z,2.97
2023-05-12T15:22:55.849Z,3.17
2023-05-12T15:25:23.225Z,4.88
2023-05-12T15:27:51.160Z,3.15
2023-05-12T15:30:18.641Z,3.50
2023-05-12T15:32:46.010Z,3.53
2023-05-12T15:35:14.162Z,2.85
2023-05-12T15:37:41.605Z,3.30
2023-05-12T15:40:09.414Z,3.28
2023-05-12T15:42:36.782Z,3.20
2023-05-12T15:45:04.310Z,3.00
2023-05-12T15:47:31.690Z,3.53
2023-05-12T15:49:59.050Z,3.00
2023-05-12T15:52:27.932Z,2.80
2023-05-12T15:54:55.297Z,3.33
2023-05-12T15:57:22.612Z,3.10
2023-05-12T15:59:50.218Z,3.08
2023-05-12T16:02:18.865Z,2.92
2023-05-12T16:04:46.202Z,2.80
2023-05-12T16:07:13.533Z,4.13
2023-05-12T16:09:40.881Z,3.38
2023-05-12T16:12:09.303Z,3.45
2023-05-12T16:14:36.806Z,3.50
2023-05-12T16:19:32.487Z,3.47
2023-05-12T16:22:00.429Z,3.30
2023-05-12T16:24:28.920Z,3.65
2023-05-12T16:26:56.774Z,3.28
2023-05-12T16:29:24.116Z,3.40
2023-05-12T16:31:51.628Z,3.17
2023-05-12T16:34:19.487Z,3.80
2023-05-12T16:36:46.800Z,3.22
2023-05-12T16:39:14.439Z,3.50
2023-05-12T16:41:41.804Z,3.20
2023-05-12T16:44:09.129Z,3.42
2023-05-12T16:46:37.302Z,2.97
2023-05-12T16:49:06.113Z,3.00
2023-05-12T16:51:33.580Z,3.05
2023-05-12T16:54:01.406Z,3.00
2023-05-12T16:56:28.849Z,3.20
2023-05-12T16:58:56.412Z,3.10
2023-05-12T17:01:23.797Z,3.00
2023-05-12T17:03:51.268Z,2.75
2023-05-12T17:06:18.627Z,3.05
2023-05-12T17:08:46.416Z,2.95
2023-05-12T17:11:13.722Z,3.05
2023-05-12T17:13:41.038Z,3.08
2023-05-12T17:16:08.531Z,3.65
2023-05-12T17:19:13.471Z,3.78
2023-05-12T17:21:23.382Z,3.30
2023-05-12T17:23:50.844Z,3.17
2023-05-12T17:26:18.262Z,2.63
2023-05-12T17:28:46.714Z,5.70
2023-05-12T17:31:14.754Z,3.75
2023-05-12T17:33:42.106Z,4.97
2023-05-12T17:36:12.887Z,3.30
2023-05-12T17:38:41.284Z,3.20
2023-05-12T17:41:09.344Z,2.90
2023-05-12T17:43:37.017Z,2.95
2023-05-12T17:46:05.312Z,2.63
2023-05-12T17:48:33.563Z,3.20
2023-05-12T17:51:01.533Z,3.05
2023-05-12T17:53:28.927Z,2.97
2023-05-12T17:55:56.298Z,2.78
2023-05-12T17:58:23.739Z,3.47
2023-05-12T18:00:51.440Z,3.20
2023-05-12T18:03:23.709Z,2.90
2023-05-12T18:05:51.774Z,2.80
2023-05-12T18:08:19.171Z,3.20
2023-05-12T18:10:46.995Z,2.80
2023-05-12T18:13:15.712Z,2.67
2023-05-12T18:15:43.100Z,2.92
2023-05-12T18:18:10.972Z,3.08
2023-05-12T18:20:38.586Z,2.80
2023-05-12T18:23:06.026Z,2.80
2023-05-12T18:25:33.648Z,2.97
2023-05-12T18:28:01.006Z,3.05
2023-05-12T18:30:28.351Z,3.17
2023-05-12T18:32:55.779Z,3.60
2023-05-12T18:35:23.305Z,3.45
2023-05-12T18:37:50.945Z,2.97
2023-05-12T18:40:18.340Z,2.92
2023-05-12T18:42:45.648Z,2.88
2023-05-12T18:45:13.004Z,3.22
2023-05-12T18:47:40.752Z,3.00
2023-05-12T18:50:08.253Z,3.10
2023-05-12T18:52:35.709Z,3.22
2023-05-12T18:55:03.159Z,3.65
2023-05-12T18:57:30.514Z,3.05
2023-05-12T18:59:57.899Z,2.85
2023-05-12T19:02:25.268Z,3.42
2023-05-12T19:04:52.895Z,4.78
2023-05-12T19:07:20.264Z,4.65
2023-05-12T19:09:47.653Z,3.70
2023-05-12T19:12:15.079Z,3.78
2023-05-12T19:14:43.347Z,4.03
2023-05-12T19:17:11.059Z,3.42
2023-05-12T19:19:38.549Z,3.80
2023-05-12T19:22:05.923Z,4.20
2023-05-12T19:24:34.724Z,3.63
2023-05-12T19:27:02.124Z,3.90
2023-05-12T19:29:29.519Z,3.65
2023-05-12T19:31:56.951Z,4.45
2023-05-12T19:34:24.419Z,4.13
2023-05-12T19:36:53.118Z,3.65
2023-05-12T19:39:20.468Z,3.97
2023-05-12T19:41:47.889Z,3.78
2023-05-12T19:44:15.232Z,3.80
2023-05-12T19:46:43.740Z,3.80
2023-05-12T19:49:11.255Z,4.03
2023-05-12T19:51:38.611Z,3.80
2023-05-12T19:54:06.702Z,3.95
2023-05-12T19:56:34.159Z,4.10
2023-05-12T19:59:01.523Z,3.85
2023-05-12T20:01:28.889Z,4.18
2023-05-12T20:03:56.796Z,4.05
2023-05-12T20:06:25.176Z,4.07
2023-05-12T20:08:52.736Z,4.35
2023-05-12T20:11:20.162Z,4.05
2023-05-12T20:13:47.480Z,4.40
2023-05-12T20:16:14.934Z,4.00
2023-05-12T20:18:42.421Z,4.43
2023-05-12T20:21:09.778Z,3.92
2023-05-12T20:23:37.090Z,4.40
2023-05-12T20:26:05.051Z,4.18
2023-05-12T20:28:32.368Z,4.05
2023-05-12T20:30:59.753Z,4.13
2023-05-12T20:33:27.116Z,3.90
2023-05-12T20:35:54.535Z,4.40
2023-05-12T20:38:21.974Z,3.90
2023-05-12T20:40:49.405Z,4.53
2023-05-12T20:43:16.831Z,3.55
2023-05-12T20:45:44.150Z,4.13
2023-05-12T20:48:11.618Z,3.88
2023-05-12T20:50:39.892Z,3.70
2023-05-12T20:53:07.263Z,3.75
2023-05-12T20:55:34.600Z,3.80
2023-05-12T20:58:01.937Z,3.67
2023-05-12T21:00:29.291Z,3.40
2023-05-12T21:02:58.202Z,3.40
2023-05-12T21:05:25.826Z,3.60
2023-05-12T21:07:53.148Z,3.33
2023-05-12T21:10:20.881Z,3.35
2023-05-12T21:12:48.586Z,3.70
2023-05-12T21:15:15.973Z,4.13
2023-05-12T21:17:43.466Z,3.00
2023-05-12T21:20:12.069Z,3.80
2023-05-12T21:22:40.880Z,3.22
2023-05-12T21:25:08.497Z,3.67
2023-05-12T21:27:40.576Z,3.42
2023-05-12T21:30:11.437Z,3.55
2023-05-12T21:32:39.794Z,3.88
2023-05-12T21:35:07.956Z,3.45
2023-05-12T21:37:35.440Z,3.70
2023-05-12T21:40:03.000Z,3.42
2023-05-12T21:42:30.448Z,3.53
2023-05-12T21:44:57.869Z,3.65
2023-05-12T21:47:25.344Z,3.80
2023-05-12T21:49:56.789Z,3.33
2023-05-12T21:52:24.246Z,3.35
2023-05-12T21:57:19.902Z,3.83
2023-05-12T21:59:47.253Z,3.88
2023-05-12T22:02:14.609Z,3.10
2023-05-12T22:04:42.017Z,3.08
2023-05-12T22:07:09.328Z,3.80
2023-05-12T22:09:36.740Z,3.80
2023-05-12T22:12:04.069Z,3.70
2023-05-12T22:14:31.692Z,3.63
2023-05-12T22:16:59.710Z,3.88
2023-05-12T22:19:27.761Z,3.20
2023-05-12T22:21:55.125Z,3.72
2023-05-12T22:24:22.451Z,3.35
2023-05-12T22:26:49.781Z,3.50
2023-05-12T22:29:17.098Z,3.42
2023-05-12T22:31:44.735Z,3.53
2023-05-12T22:34:12.163Z,3.33
2023-05-12T22:36:39.541Z,3.30
2023-05-12T22:39:06.955Z,3.47
2023-05-12T22:41:34.369Z,3.25
2023-05-12T22:44:01.734Z,3.70
2023-05-12T22:46:29.110Z,3.53
2023-05-12T22:48:56.562Z,3.17
2023-05-12T22:51:23.937Z,3.42
2023-05-12T22:53:51.296Z,3.30
2023-05-12T22:56:18.632Z,2.97
2023-05-12T22:58:46.110Z,3.40
2023-05-12T23:01:13.515Z,3.35
2023-05-12T23:03:41.027Z,3.15
2023-05-12T23:06:08.544Z,3.42
2023-05-12T23:08:35.895Z,3.20
2023-05-12T23:11:12.536Z,3.80
2023-05-12T23:13:47.769Z,3.97
2023-05-12T23:16:30.196Z,3.47
2023-05-12T23:18:57.694Z,3.40
2023-05-12T23:21:25.069Z,3.58
2023-05-12T23:23:52.400Z,3.60
2023-05-12T23:26:19.746Z,3.55
2023-05-12T23:28:47.041Z,3.33
2023-05-12T23:31:14.376Z,3.47
2023-05-12T23:33:41.803Z,3.30
2023-05-12T23:36:09.695Z,3.67
2023-05-12T23:38:37.047Z,3.55
2023-05-12T23:41:04.376Z,3.40
2023-05-12T23:43:31.679Z,3.78
2023-05-12T23:45:59.023Z,3.90
2023-05-12T23:48:26.439Z,3.90
2023-05-12T23:50:53.970Z,3.53
2023-05-12T23:53:21.366Z,3.55
2023-05-12T23:55:48.790Z,3.92
2023-05-12T23:58:16.577Z,3.97
